sensor_id;sensor_type;location;lat;lon;timestamp;P1;durP1;ratioP1;P2;durP2;ratioP2
46777;SDS011;32536;47.128;8.746;2023-06-10T00:00:49;3.25;;;1.42;;
46777;SDS011;32536;47.128;8.746;2023-06-10T00:03:16;3.95;;;2.90;;
46777;SDS011;32536;47.128;8.746;2023-06-10T00:05:43;3.35;;;2.10;;
46777;SDS011;32536;47.128;8.746;2023-06-10T00:08:10;3.47;;;1.58;;
46777;SDS011;32536;47.128;8.746;2023-06-10T00:10:37;3.63;;;1.73;;
46777;SDS011;32536;47.128;8.746;2023-06-10T00:13:05;3.53;;;2.13;;
46777;SDS011;32536;47.128;8.746;2023-06-10T00:15:37;2.95;;;1.52;;
46777;SDS011;32536;47.128;8.746;2023-06-10T00:18:04;3.30;;;1.95;;
46777;SDS011;32536;47.128;8.746;2023-06-10T00:20:31;3.50;;;2.55;;
46777;SDS011;32536;47.128;8.746;2023-06-10T00:22:58;2.55;;;1.10;;
46777;SDS011;32536;47.128;8.746;2023-06-10T00:25:26;3.42;;;2.42;;
46777;SDS011;32536;47.128;8.746;2023-06-10T00:27:53;3.35;;;1.45;;
46777;SDS011;32536;47.128;8.746;2023-06-10T00:30:21;3.63;;;2.05;;
46777;SDS011;32536;47.128;8.746;2023-06-10T00:32:48;2.70;;;1.15;;
46777;SDS011;32536;47.128;8.746;2023-06-10T00:35:15;3.00;;;1.52;;
46777;SDS011;32536;47.128;8.746;2023-06-10T00:37:41;3.10;;;1.48;;
46777;SDS011;32536;47.128;8.746;2023-06-10T00:40:08;4.07;;;2.45;;
46777;SDS011;32536;47.128;8.746;2023-06-10T00:42:36;3.22;;;1.45;;
46777;SDS011;32536;47.128;8.746;2023-06-10T00:45:03;3.63;;;1.70;;
46777;SDS011;32536;47.128;8.746;2023-06-10T00:47:31;3.92;;;1.58;;
46777;SDS011;32536;47.128;8.746;2023-06-10T00:49:58;3.17;;;1.80;;
46777;SDS011;32536;47.128;8.746;2023-06-10T00:52:26;3.50;;;2.17;;
46777;SDS011;32536;47.128;8.746;2023-06-10T00:54:55;3.22;;;1.38;;
46777;SDS011;32536;47.128;8.746;2023-06-10T00:57:22;2.35;;;1.17;;
46777;SDS011;32536;47.128;8.746;2023-06-10T00:59:49;3.15;;;1.95;;
46777;SDS011;32536;47.128;8.746;2023-06-10T01:02:16;2.85;;;1.45;;
46777;SDS011;32536;47.128;8.746;2023-06-10T01:04:43;2.80;;;1.60;;
46777;SDS011;32536;47.128;8.746;2023-06-10T01:07:26;3.50;;;2.13;;
46777;SDS011;32536;47.128;8.746;2023-06-10T01:10:57;5.20;;;2.45;;
46777;SDS011;32536;47.128;8.746;2023-06-10T01:13:14;2.85;;;1.30;;
46777;SDS011;32536;47.128;8.746;2023-06-10T01:15:42;2.95;;;1.63;;
46777;SDS011;32536;47.128;8.746;2023-06-10T01:18:09;2.67;;;1.45;;
46777;SDS011;32536;47.128;8.746;2023-06-10T01:20:40;2.28;;;1.30;;
46777;SDS011;32536;47.128;8.746;2023-06-10T01:23:10;3.20;;;1.40;;
46777;SDS011;32536;47.128;8.746;2023-06-10T01:25:37;5.03;;;2.95;;
46777;SDS011;32536;47.128;8.746;2023-06-10T01:31:10;5.05;;;2.70;;
46777;SDS011;32536;47.128;8.746;2023-06-10T01:33:59;3.75;;;1.70;;
46777;SDS011;32536;47.128;8.746;2023-06-10T01:36:28;2.70;;;1.38;;
46777;SDS011;32536;47.128;8.746;2023-06-10T01:38:55;3.40;;;1.50;;
46777;SDS011;32536;47.128;8.746;2023-06-10T01:41:24;4.20;;;2.47;;
46777;SDS011;32536;47.128;8.746;2023-06-10T01:43:51;3.60;;;1.65;;
46777;SDS011;32536;47.128;8.746;2023-06-10T01:46:18;3.85;;;2.50;;
46777;SDS011;32536;47.128;8.746;2023-06-10T01:48:45;3.47;;;1.70;;
46777;SDS011;32536;47.128;8.746;2023-06-10T01:51:13;2.88;;;1.85;;
46777;SDS011;32536;47.128;8.746;2023-06-10T01:53:39;3.50;;;2.15;;
46777;SDS011;32536;47.128;8.746;2023-06-10T01:56:06;2.97;;;1.45;;
46777;SDS011;32536;47.128;8.746;2023-06-10T01:58:33;3.38;;;2.13;;
46777;SDS011;32536;47.128;8.746;2023-06-10T02:00:59;4.28;;;2.45;;
46777;SDS011;32536;47.128;8.746;2023-06-10T02:03:26;4.47;;;2.42;;
46777;SDS011;32536;47.128;8.746;2023-06-10T02:05:53;3.70;;;2.53;;
46777;SDS011;32536;47.128;8.746;2023-06-10T02:08:20;4.03;;;2.17;;
46777;SDS011;32536;47.128;8.746;2023-06-10T02:10:46;3.60;;;2.42;;
46777;SDS011;32536;47.128;8.746;2023-06-10T02:13:13;3.85;;;2.58;;
46777;SDS011;32536;47.128;8.746;2023-06-10T02:15:40;2.33;;;0.70;;
46777;SDS011;32536;47.128;8.746;2023-06-10T02:18:06;2.70;;;0.82;;
46777;SDS011;32536;47.128;8.746;2023-06-10T02:20:33;3.25;;;1.85;;
46777;SDS011;32536;47.128;8.746;2023-06-10T02:23:00;3.72;;;1.20;;
46777;SDS011;32536;47.128;8.746;2023-06-10T02:25:26;3.42;;;1.40;;
46777;SDS011;32536;47.128;8.746;2023-06-10T02:27:53;4.60;;;2.58;;
46777;SDS011;32536;47.128;8.746;2023-06-10T02:30:20;3.95;;;2.08;;
46777;SDS011;32536;47.128;8.746;2023-06-10T02:32:47;4.65;;;2.30;;
46777;SDS011;32536;47.128;8.746;2023-06-10T02:35:17;3.78;;;1.70;;
46777;SDS011;32536;47.128;8.746;2023-06-10T02:37:43;4.15;;;2.25;;
46777;SDS011;32536;47.128;8.746;2023-06-10T02:40:11;4.22;;;2.20;;
46777;SDS011;32536;47.128;8.746;2023-06-10T02:42:38;5.22;;;2.45;;
46777;SDS011;32536;47.128;8.746;2023-06-10T02:45:05;4.72;;;2.83;;
46777;SDS011;32536;47.128;8.746;2023-06-10T02:47:32;5.80;;;3.25;;
46777;SDS011;32536;47.128;8.746;2023-06-10T02:49:59;5.47;;;2.55;;
46777;SDS011;32536;47.128;8.746;2023-06-10T02:52:26;5.03;;;2.60;;
46777;SDS011;32536;47.128;8.746;2023-06-10T02:54:52;4.50;;;2.83;;
46777;SDS011;32536;47.128;8.746;2023-06-10T02:57:19;4.90;;;2.85;;
46777;SDS011;32536;47.128;8.746;2023-06-10T02:59:46;3.72;;;1.98;;
46777;SDS011;32536;47.128;8.746;2023-06-10T03:02:13;4.43;;;3.10;;
46777;SDS011;32536;47.128;8.746;2023-06-10T03:04:39;4.55;;;2.30;;
46777;SDS011;32536;47.128;8.746;2023-06-10T03:07:06;4.20;;;2.47;;
46777;SDS011;32536;47.128;8.746;2023-06-10T03:09:34;4.40;;;2.22;;
46777;SDS011;32536;47.128;8.746;2023-06-10T03:12:00;3.97;;;1.95;;
46777;SDS011;32536;47.128;8.746;2023-06-10T03:14:28;3.13;;;1.45;;
46777;SDS011;32536;47.128;8.746;2023-06-10T03:16:54;3.53;;;1.50;;
46777;SDS011;32536;47.128;8.746;2023-06-10T03:19:21;4.35;;;2.25;;
46777;SDS011;32536;47.128;8.746;2023-06-10T03:21:57;3.25;;;1.50;;
46777;SDS011;32536;47.128;8.746;2023-06-10T03:24:34;2.60;;;1.23;;
46777;SDS011;32536;47.128;8.746;2023-06-10T03:27:01;3.00;;;1.25;;
46777;SDS011;32536;47.128;8.746;2023-06-10T03:29:30;3.40;;;1.83;;
46777;SDS011;32536;47.128;8.746;2023-06-10T03:31:57;3.15;;;1.58;;
46777;SDS011;32536;47.128;8.746;2023-06-10T03:34:24;3.05;;;1.58;;
46777;SDS011;32536;47.128;8.746;2023-06-10T03:36:51;3.33;;;1.63;;
46777;SDS011;32536;47.128;8.746;2023-06-10T03:39:17;3.17;;;2.15;;
46777;SDS011;32536;47.128;8.746;2023-06-10T03:41:44;3.58;;;2.13;;
46777;SDS011;32536;47.128;8.746;2023-06-10T03:44:11;3.10;;;1.38;;
46777;SDS011;32536;47.128;8.746;2023-06-10T03:46:38;3.58;;;2.30;;
46777;SDS011;32536;47.128;8.746;2023-06-10T03:49:05;2.55;;;1.42;;
46777;SDS011;32536;47.128;8.746;2023-06-10T03:51:31;1.98;;;1.00;;
46777;SDS011;32536;47.128;8.746;2023-06-10T03:53:58;5.85;;;2.30;;
46777;SDS011;32536;47.128;8.746;2023-06-10T03:56:25;4.50;;;2.83;;
46777;SDS011;32536;47.128;8.746;2023-06-10T03:58:51;4.28;;;2.30;;
46777;SDS011;32536;47.128;8.746;2023-06-10T04:01:18;5.22;;;2.22;;
46777;SDS011;32536;47.128;8.746;2023-06-10T04:03:49;6.07;;;4.72;;
46777;SDS011;32536;47.128;8.746;2023-06-10T04:06:17;4.05;;;2.85;;
46777;SDS011;32536;47.128;8.746;2023-06-10T04:08:44;4.70;;;2.33;;
46777;SDS011;32536;47.128;8.746;2023-06-10T04:11:10;5.00;;;2.60;;
46777;SDS011;32536;47.128;8.746;2023-06-10T04:13:37;5.05;;;2.80;;
46777;SDS011;32536;47.128;8.746;2023-06-10T04:16:04;4.40;;;2.35;;
46777;SDS011;32536;47.128;8.746;2023-06-10T04:18:31;3.80;;;1.70;;
46777;SDS011;32536;47.128;8.746;2023-06-10T04:20:57;3.78;;;1.70;;
46777;SDS011;32536;47.128;8.746;2023-06-10T04:23:24;4.40;;;1.83;;
46777;SDS011;32536;47.128;8.746;2023-06-10T04:25:51;5.68;;;3.25;;
46777;SDS011;32536;47.128;8.746;2023-06-10T04:28:18;5.57;;;3.30;;
46777;SDS011;32536;47.128;8.746;2023-06-10T04:30:45;6.10;;;3.78;;
46777;SDS011;32536;47.128;8.746;2023-06-10T04:33:11;5.95;;;3.38;;
46777;SDS011;32536;47.128;8.746;2023-06-10T04:35:38;6.05;;;3.58;;
46777;SDS011;32536;47.128;8.746;2023-06-10T04:38:05;5.70;;;3.22;;
46777;SDS011;32536;47.128;8.746;2023-06-10T04:40:31;4.75;;;2.75;;
46777;SDS011;32536;47.128;8.746;2023-06-10T04:42:58;4.10;;;1.80;;
46777;SDS011;32536;47.128;8.746;2023-06-10T04:45:25;5.10;;;2.35;;
46777;SDS011;32536;47.128;8.746;2023-06-10T04:47:52;4.40;;;2.42;;
46777;SDS011;32536;47.128;8.746;2023-06-10T04:50:21;3.90;;;1.90;;
46777;SDS011;32536;47.128;8.746;2023-06-10T04:52:48;5.75;;;3.17;;
46777;SDS011;32536;47.128;8.746;2023-06-10T04:55:15;11.50;;;2.85;;
46777;SDS011;32536;47.128;8.746;2023-06-10T04:57:42;3.40;;;1.58;;
46777;SDS011;32536;47.128;8.746;2023-06-10T05:00:09;5.03;;;2.78;;
46777;SDS011;32536;47.128;8.746;2023-06-10T05:02:36;5.43;;;2.55;;
46777;SDS011;32536;47.128;8.746;2023-06-10T05:05:03;6.00;;;3.17;;
46777;SDS011;32536;47.128;8.746;2023-06-10T05:07:30;6.72;;;4.50;;
46777;SDS011;32536;47.128;8.746;2023-06-10T05:09:57;6.10;;;3.65;;
46777;SDS011;32536;47.128;8.746;2023-06-10T05:12:23;6.18;;;3.42;;
46777;SDS011;32536;47.128;8.746;2023-06-10T05:14:50;7.30;;;4.28;;
46777;SDS011;32536;47.128;8.746;2023-06-10T05:17:17;6.85;;;4.20;;
46777;SDS011;32536;47.128;8.746;2023-06-10T05:19:43;6.30;;;3.65;;
46777;SDS011;32536;47.128;8.746;2023-06-10T05:22:10;6.70;;;4.80;;
46777;SDS011;32536;47.128;8.746;2023-06-10T05:24:37;6.50;;;3.60;;
46777;SDS011;32536;47.128;8.746;2023-06-10T05:27:04;6.95;;;4.50;;
46777;SDS011;32536;47.128;8.746;2023-06-10T05:29:33;6.00;;;3.63;;
46777;SDS011;32536;47.128;8.746;2023-06-10T05:32:00;8.18;;;4.22;;
46777;SDS011;32536;47.128;8.746;2023-06-10T05:34:29;7.00;;;5.20;;
46777;SDS011;32536;47.128;8.746;2023-06-10T05:36:56;7.15;;;4.25;;
46777;SDS011;32536;47.128;8.746;2023-06-10T05:39:23;6.10;;;3.55;;
46777;SDS011;32536;47.128;8.746;2023-06-10T05:41:50;5.35;;;2.88;;
46777;SDS011;32536;47.128;8.746;2023-06-10T05:44:16;5.72;;;3.75;;
46777;SDS011;32536;47.128;8.746;2023-06-10T05:46:43;4.63;;;2.47;;
46777;SDS011;32536;47.128;8.746;2023-06-10T05:49:10;5.78;;;3.85;;
46777;SDS011;32536;47.128;8.746;2023-06-10T05:51:36;5.90;;;3.42;;
46777;SDS011;32536;47.128;8.746;2023-06-10T05:54:03;5.22;;;2.60;;
46777;SDS011;32536;47.128;8.746;2023-06-10T05:56:30;7.88;;;4.45;;
46777;SDS011;32536;47.128;8.746;2023-06-10T05:58:57;6.20;;;3.88;;
46777;SDS011;32536;47.128;8.746;2023-06-10T06:01:24;6.88;;;4.03;;
46777;SDS011;32536;47.128;8.746;2023-06-10T06:03:50;5.65;;;3.33;;
46777;SDS011;32536;47.128;8.746;2023-06-10T06:06:17;6.07;;;3.42;;
46777;SDS011;32536;47.128;8.746;2023-06-10T06:08:46;4.85;;;2.72;;
46777;SDS011;32536;47.128;8.746;2023-06-10T06:11:12;5.68;;;3.20;;
46777;SDS011;32536;47.128;8.746;2023-06-10T06:13:39;5.03;;;2.83;;
46777;SDS011;32536;47.128;8.746;2023-06-10T06:16:07;7.15;;;3.80;;
46777;SDS011;32536;47.128;8.746;2023-06-10T06:18:34;6.57;;;4.43;;
46777;SDS011;32536;47.128;8.746;2023-06-10T06:21:01;6.30;;;3.63;;
46777;SDS011;32536;47.128;8.746;2023-06-10T06:23:27;4.90;;;2.80;;
46777;SDS011;32536;47.128;8.746;2023-06-10T06:25:54;4.35;;;2.00;;
46777;SDS011;32536;47.128;8.746;2023-06-10T06:28:21;6.50;;;5.45;;
46777;SDS011;32536;47.128;8.746;2023-06-10T06:30:48;5.25;;;2.85;;
46777;SDS011;32536;47.128;8.746;2023-06-10T06:33:14;5.50;;;2.70;;
46777;SDS011;32536;47.128;8.746;2023-06-10T06:35:41;5.05;;;3.22;;
46777;SDS011;32536;47.128;8.746;2023-06-10T06:38:08;5.60;;;2.67;;
46777;SDS011;32536;47.128;8.746;2023-06-10T06:40:35;4.20;;;2.53;;
46777;SDS011;32536;47.128;8.746;2023-06-10T06:43:01;6.50;;;3.78;;
46777;SDS011;32536;47.128;8.746;2023-06-10T06:45:28;6.55;;;4.25;;
46777;SDS011;32536;47.128;8.746;2023-06-10T06:47:55;6.03;;;3.35;;
46777;SDS011;32536;47.128;8.746;2023-06-10T06:50:22;7.60;;;4.43;;
46777;SDS011;32536;47.128;8.746;2023-06-10T06:52:48;5.85;;;3.75;;
46777;SDS011;32536;47.128;8.746;2023-06-10T06:55:15;7.18;;;4.20;;
46777;SDS011;32536;47.128;8.746;2023-06-10T06:57:42;6.63;;;3.47;;
46777;SDS011;32536;47.128;8.746;2023-06-10T07:00:09;5.78;;;3.55;;
46777;SDS011;32536;47.128;8.746;2023-06-10T07:02:36;4.78;;;2.78;;
46777;SDS011;32536;47.128;8.746;2023-06-10T07:05:03;5.05;;;3.13;;
46777;SDS011;32536;47.128;8.746;2023-06-10T07:07:30;5.70;;;4.25;;
46777;SDS011;32536;47.128;8.746;2023-06-10T07:09:57;3.80;;;1.90;;
46777;SDS011;32536;47.128;8.746;2023-06-10T07:12:24;4.72;;;3.08;;
46777;SDS011;32536;47.128;8.746;2023-06-10T07:14:51;6.50;;;4.75;;
46777;SDS011;32536;47.128;8.746;2023-06-10T07:17:17;6.93;;;4.18;;
46777;SDS011;32536;47.128;8.746;2023-06-10T07:19:45;7.55;;;4.80;;
46777;SDS011;32536;47.128;8.746;2023-06-10T07:22:12;7.70;;;6.03;;
46777;SDS011;32536;47.128;8.746;2023-06-10T07:24:39;7.57;;;5.53;;
46777;SDS011;32536;47.128;8.746;2023-06-10T07:27:06;6.78;;;4.57;;
46777;SDS011;32536;47.128;8.746;2023-06-10T07:29:33;6.43;;;4.80;;
46777;SDS011;32536;47.128;8.746;2023-06-10T07:32:02;5.50;;;2.88;;
46777;SDS011;32536;47.128;8.746;2023-06-10T07:34:30;6.40;;;4.63;;
46777;SDS011;32536;47.128;8.746;2023-06-10T07:36:56;5.90;;;3.80;;
46777;SDS011;32536;47.128;8.746;2023-06-10T07:39:23;6.53;;;4.00;;
46777;SDS011;32536;47.128;8.746;2023-06-10T07:41:50;5.88;;;4.22;;
46777;SDS011;32536;47.128;8.746;2023-06-10T07:44:19;4.70;;;2.38;;
46777;SDS011;32536;47.128;8.746;2023-06-10T07:46:46;5.40;;;3.67;;
46777;SDS011;32536;47.128;8.746;2023-06-10T07:49:12;5.15;;;3.63;;
46777;SDS011;32536;47.128;8.746;2023-06-10T07:51:39;4.88;;;3.58;;
46777;SDS011;32536;47.128;8.746;2023-06-10T07:54:06;5.55;;;3.60;;
46777;SDS011;32536;47.128;8.746;2023-06-10T07:56:33;7.90;;;4.95;;
46777;SDS011;32536;47.128;8.746;2023-06-10T07:59:00;5.60;;;3.83;;
46777;SDS011;32536;47.128;8.746;2023-06-10T08:01:26;5.70;;;3.58;;
46777;SDS011;32536;47.128;8.746;2023-06-10T08:03:53;4.97;;;2.65;;
46777;SDS011;32536;47.128;8.746;2023-06-10T08:06:20;7.38;;;2.40;;
46777;SDS011;32536;47.128;8.746;2023-06-10T08:08:46;4.38;;;2.53;;
46777;SDS011;32536;47.128;8.746;2023-06-10T08:11:13;5.32;;;2.88;;
46777;SDS011;32536;47.128;8.746;2023-06-10T08:13:40;4.07;;;2.53;;
46777;SDS011;32536;47.128;8.746;2023-06-10T08:16:07;5.68;;;3.58;;
46777;SDS011;32536;47.128;8.746;2023-06-10T08:18:33;4.78;;;2.08;;
46777;SDS011;32536;47.128;8.746;2023-06-10T08:21:00;4.57;;;2.45;;
46777;SDS011;32536;47.128;8.746;2023-06-10T08:23:27;6.13;;;3.75;;
46777;SDS011;32536;47.128;8.746;2023-06-10T08:25:54;4.90;;;3.03;;
46777;SDS011;32536;47.128;8.746;2023-06-10T08:28:20;4.82;;;2.80;;
46777;SDS011;32536;47.128;8.746;2023-06-10T08:30:47;4.07;;;2.30;;
46777;SDS011;32536;47.128;8.746;2023-06-10T08:33:14;6.10;;;4.20;;
46777;SDS011;32536;47.128;8.746;2023-06-10T08:35:41;4.28;;;3.20;;
46777;SDS011;32536;47.128;8.746;2023-06-10T08:38:08;5.43;;;3.45;;
46777;SDS011;32536;47.128;8.746;2023-06-10T08:40:34;4.97;;;2.80;;
46777;SDS011;32536;47.128;8.746;2023-06-10T08:43:10;4.80;;;3.13;;
46777;SDS011;32536;47.128;8.746;2023-06-10T08:45:48;5.70;;;4.55;;
46777;SDS011;32536;47.128;8.746;2023-06-10T08:48:15;5.15;;;3.40;;
46777;SDS011;32536;47.128;8.746;2023-06-10T08:50:44;4.95;;;2.60;;
46777;SDS011;32536;47.128;8.746;2023-06-10T08:53:13;5.47;;;2.92;;
46777;SDS011;32536;47.128;8.746;2023-06-10T08:55:43;5.25;;;3.45;;
46777;SDS011;32536;47.128;8.746;2023-06-10T08:58:19;5.78;;;3.35;;
46777;SDS011;32536;47.128;8.746;2023-06-10T09:00:46;5.38;;;3.50;;
46777;SDS011;32536;47.128;8.746;2023-06-10T09:03:13;6.63;;;3.95;;
46777;SDS011;32536;47.128;8.746;2023-06-10T09:05:40;5.72;;;3.55;;
46777;SDS011;32536;47.128;8.746;2023-06-10T09:08:08;6.03;;;3.20;;
46777;SDS011;32536;47.128;8.746;2023-06-10T09:10:35;5.22;;;2.90;;
46777;SDS011;32536;47.128;8.746;2023-06-10T09:13:02;5.75;;;3.10;;
46777;SDS011;32536;47.128;8.746;2023-06-10T09:15:29;4.72;;;3.30;;
46777;SDS011;32536;47.128;8.746;2023-06-10T09:17:56;4.50;;;2.40;;
46777;SDS011;32536;47.128;8.746;2023-06-10T09:20:23;5.20;;;3.40;;
46777;SDS011;32536;47.128;8.746;2023-06-10T09:22:50;5.32;;;3.50;;
46777;SDS011;32536;47.128;8.746;2023-06-10T09:25:17;5.68;;;3.35;;
46777;SDS011;32536;47.128;8.746;2023-06-10T09:27:47;5.72;;;4.13;;
46777;SDS011;32536;47.128;8.746;2023-06-10T09:30:34;5.88;;;3.13;;
46777;SDS011;32536;47.128;8.746;2023-06-10T09:33:02;5.40;;;3.45;;
46777;SDS011;32536;47.128;8.746;2023-06-10T09:35:50;5.55;;;4.00;;
46777;SDS011;32536;47.128;8.746;2023-06-10T09:38:20;6.30;;;2.70;;
46777;SDS011;32536;47.128;8.746;2023-06-10T09:40:48;5.28;;;3.75;;
46777;SDS011;32536;47.128;8.746;2023-06-10T09:43:20;5.45;;;2.85;;
46777;SDS011;32536;47.128;8.746;2023-06-10T09:45:48;4.80;;;2.50;;
46777;SDS011;32536;47.128;8.746;2023-06-10T09:48:15;5.07;;;2.28;;
46777;SDS011;32536;47.128;8.746;2023-06-10T09:50:43;5.90;;;3.22;;
46777;SDS011;32536;47.128;8.746;2023-06-10T09:53:11;5.95;;;3.45;;
46777;SDS011;32536;47.128;8.746;2023-06-10T09:55:38;5.30;;;2.63;;
46777;SDS011;32536;47.128;8.746;2023-06-10T09:58:05;5.78;;;3.30;;
46777;SDS011;32536;47.128;8.746;2023-06-10T10:00:33;5.10;;;3.10;;
46777;SDS011;32536;47.128;8.746;2023-06-10T10:03:00;5.38;;;3.25;;
46777;SDS011;32536;47.128;8.746;2023-06-10T10:05:27;6.70;;;3.33;;
46777;SDS011;32536;47.128;8.746;2023-06-10T10:07:55;5.32;;;2.88;;
46777;SDS011;32536;47.128;8.746;2023-06-10T10:10:22;5.10;;;3.70;;
46777;SDS011;32536;47.128;8.746;2023-06-10T10:12:51;6.72;;;3.90;;
46777;SDS011;32536;47.128;8.746;2023-06-10T10:15:21;5.60;;;3.92;;
46777;SDS011;32536;47.128;8.746;2023-06-10T10:18:05;4.70;;;2.55;;
46777;SDS011;32536;47.128;8.746;2023-06-10T10:20:37;5.22;;;3.33;;
46777;SDS011;32536;47.128;8.746;2023-06-10T10:23:20;5.80;;;3.88;;
46777;SDS011;32536;47.128;8.746;2023-06-10T10:25:55;7.18;;;4.70;;
46777;SDS011;32536;47.128;8.746;2023-06-10T10:31:07;5.53;;;3.13;;
46777;SDS011;32536;47.128;8.746;2023-06-10T10:33:40;5.88;;;3.90;;
46777;SDS011;32536;47.128;8.746;2023-06-10T10:36:28;7.47;;;3.85;;
46777;SDS011;32536;47.128;8.746;2023-06-10T10:38:55;5.85;;;4.25;;
46777;SDS011;32536;47.128;8.746;2023-06-10T10:41:23;5.47;;;3.53;;
46777;SDS011;32536;47.128;8.746;2023-06-10T10:43:51;5.57;;;3.22;;
46777;SDS011;32536;47.128;8.746;2023-06-10T10:49:19;4.80;;;2.50;;
46777;SDS011;32536;47.128;8.746;2023-06-10T10:51:58;5.95;;;3.25;;
46777;SDS011;32536;47.128;8.746;2023-06-10T10:54:30;5.97;;;3.72;;
46777;SDS011;32536;47.128;8.746;2023-06-10T10:57:13;6.55;;;4.38;;
46777;SDS011;32536;47.128;8.746;2023-06-10T11:05:01;5.82;;;3.78;;
46777;SDS011;32536;47.128;8.746;2023-06-10T11:07:30;6.63;;;4.38;;
46777;SDS011;32536;47.128;8.746;2023-06-10T11:10:00;6.97;;;5.32;;
46777;SDS011;32536;47.128;8.746;2023-06-10T11:15:24;7.55;;;5.03;;
46777;SDS011;32536;47.128;8.746;2023-06-10T11:18:10;7.65;;;4.68;;
46777;SDS011;32536;47.128;8.746;2023-06-10T11:20:54;7.07;;;3.97;;
46777;SDS011;32536;47.128;8.746;2023-06-10T11:23:26;7.05;;;4.95;;
46777;SDS011;32536;47.128;8.746;2023-06-10T11:28:40;5.53;;;4.10;;
46777;SDS011;32536;47.128;8.746;2023-06-10T11:31:20;4.97;;;2.60;;
46777;SDS011;32536;47.128;8.746;2023-06-10T11:33:56;5.13;;;3.90;;
46777;SDS011;32536;47.128;8.746;2023-06-10T11:36:24;6.63;;;4.70;;
46777;SDS011;32536;47.128;8.746;2023-06-10T11:39:02;6.20;;;4.07;;
46777;SDS011;32536;47.128;8.746;2023-06-10T11:41:30;6.78;;;4.57;;
46777;SDS011;32536;47.128;8.746;2023-06-10T11:46:36;6.05;;;3.17;;
46777;SDS011;32536;47.128;8.746;2023-06-10T11:49:04;5.50;;;2.90;;
46777;SDS011;32536;47.128;8.746;2023-06-10T11:51:33;5.40;;;3.03;;
46777;SDS011;32536;47.128;8.746;2023-06-10T11:54:02;4.93;;;3.28;;
46777;SDS011;32536;47.128;8.746;2023-06-10T11:56:30;6.65;;;4.22;;
46777;SDS011;32536;47.128;8.746;2023-06-10T12:01:31;5.78;;;3.45;;
46777;SDS011;32536;47.128;8.746;2023-06-10T12:04:07;4.88;;;2.85;;
46777;SDS011;32536;47.128;8.746;2023-06-10T12:06:45;5.50;;;3.47;;
46777;SDS011;32536;47.128;8.746;2023-06-10T12:09:25;6.20;;;3.65;;
46777;SDS011;32536;47.128;8.746;2023-06-10T12:11:57;5.85;;;4.18;;
46777;SDS011;32536;47.128;8.746;2023-06-10T12:17:44;4.95;;;3.13;;
46777;SDS011;32536;47.128;8.746;2023-06-10T12:20:23;5.13;;;2.90;;
46777;SDS011;32536;47.128;8.746;2023-06-10T12:22:53;4.75;;;2.40;;
46777;SDS011;32536;47.128;8.746;2023-06-10T12:25:24;6.05;;;3.13;;
46777;SDS011;32536;47.128;8.746;2023-06-10T12:27:53;6.35;;;3.80;;
46777;SDS011;32536;47.128;8.746;2023-06-10T12:30:24;5.72;;;3.63;;
46777;SDS011;32536;47.128;8.746;2023-06-10T12:32:53;8.82;;;5.07;;
46777;SDS011;32536;47.128;8.746;2023-06-10T12:38:22;5.38;;;2.90;;
46777;SDS011;32536;47.128;8.746;2023-06-10T12:40:52;5.03;;;3.13;;
46777;SDS011;32536;47.128;8.746;2023-06-10T12:43:22;6.63;;;2.95;;
46777;SDS011;32536;47.128;8.746;2023-06-10T12:45:49;4.35;;;2.47;;
46777;SDS011;32536;47.128;8.746;2023-06-10T12:50:55;4.57;;;2.40;;
46777;SDS011;32536;47.128;8.746;2023-06-10T12:53:24;5.47;;;3.05;;
46777;SDS011;32536;47.128;8.746;2023-06-10T12:55:54;5.45;;;3.10;;
46777;SDS011;32536;47.128;8.746;2023-06-10T12:58:22;5.47;;;3.20;;
46777;SDS011;32536;47.128;8.746;2023-06-10T13:00:49;7.05;;;4.75;;
46777;SDS011;32536;47.128;8.746;2023-06-10T13:03:18;6.15;;;3.55;;
46777;SDS011;32536;47.128;8.746;2023-06-10T13:05:44;4.82;;;2.80;;
46777;SDS011;32536;47.128;8.746;2023-06-10T13:08:11;4.55;;;2.25;;
46777;SDS011;32536;47.128;8.746;2023-06-10T13:10:38;4.85;;;2.80;;
46777;SDS011;32536;47.128;8.746;2023-06-10T13:13:06;4.60;;;2.45;;
46777;SDS011;32536;47.128;8.746;2023-06-10T13:15:35;4.57;;;2.55;;
46777;SDS011;32536;47.128;8.746;2023-06-10T13:18:02;5.03;;;3.15;;
46777;SDS011;32536;47.128;8.746;2023-06-10T13:20:29;4.95;;;3.40;;
46777;SDS011;32536;47.128;8.746;2023-06-10T13:22:56;4.57;;;2.38;;
46777;SDS011;32536;47.128;8.746;2023-06-10T13:25:23;3.63;;;2.05;;
46777;SDS011;32536;47.128;8.746;2023-06-10T13:27:50;6.65;;;3.13;;
46777;SDS011;32536;47.128;8.746;2023-06-10T13:30:17;4.43;;;2.40;;
46777;SDS011;32536;47.128;8.746;2023-06-10T13:32:44;5.35;;;3.55;;
46777;SDS011;32536;47.128;8.746;2023-06-10T13:35:10;4.97;;;2.85;;
46777;SDS011;32536;47.128;8.746;2023-06-10T13:37:37;5.40;;;3.22;;
46777;SDS011;32536;47.128;8.746;2023-06-10T13:40:04;6.40;;;3.90;;
46777;SDS011;32536;47.128;8.746;2023-06-10T13:42:31;4.85;;;2.88;;
46777;SDS011;32536;47.128;8.746;2023-06-10T13:44:58;4.95;;;3.00;;
46777;SDS011;32536;47.128;8.746;2023-06-10T13:47:25;6.35;;;3.40;;
46777;SDS011;32536;47.128;8.746;2023-06-10T13:49:52;4.88;;;3.13;;
46777;SDS011;32536;47.128;8.746;2023-06-10T13:52:18;5.07;;;2.78;;
46777;SDS011;32536;47.128;8.746;2023-06-10T13:54:45;5.95;;;3.63;;
46777;SDS011;32536;47.128;8.746;2023-06-10T13:57:12;5.75;;;3.47;;
46777;SDS011;32536;47.128;8.746;2023-06-10T13:59:39;4.60;;;2.45;;
46777;SDS011;32536;47.128;8.746;2023-06-10T14:02:06;4.80;;;2.60;;
46777;SDS011;32536;47.128;8.746;2023-06-10T14:04:32;5.47;;;3.42;;
46777;SDS011;32536;47.128;8.746;2023-06-10T14:06:59;6.43;;;3.95;;
46777;SDS011;32536;47.128;8.746;2023-06-10T14:09:26;4.85;;;3.25;;
46777;SDS011;32536;47.128;8.746;2023-06-10T14:11:53;5.35;;;3.45;;
46777;SDS011;32536;47.128;8.746;2023-06-10T14:14:20;5.25;;;3.17;;
46777;SDS011;32536;47.128;8.746;2023-06-10T14:16:48;6.07;;;3.72;;
46777;SDS011;32536;47.128;8.746;2023-06-10T14:19:14;5.80;;;3.67;;
46777;SDS011;32536;47.128;8.746;2023-06-10T14:21:41;4.90;;;2.70;;
46777;SDS011;32536;47.128;8.746;2023-06-10T14:24:08;5.15;;;3.70;;
46777;SDS011;32536;47.128;8.746;2023-06-10T14:26:34;6.78;;;3.90;;
46777;SDS011;32536;47.128;8.746;2023-06-10T14:29:01;5.75;;;3.33;;
46777;SDS011;32536;47.128;8.746;2023-06-10T14:31:28;5.28;;;3.08;;
46777;SDS011;32536;47.128;8.746;2023-06-10T14:33:55;4.82;;;2.65;;
46777;SDS011;32536;47.128;8.746;2023-06-10T14:36:21;5.00;;;2.67;;
46777;SDS011;32536;47.128;8.746;2023-06-10T14:38:48;5.03;;;2.38;;
46777;SDS011;32536;47.128;8.746;2023-06-10T14:41:15;4.20;;;2.20;;
46777;SDS011;32536;47.128;8.746;2023-06-10T14:43:42;6.18;;;3.50;;
46777;SDS011;32536;47.128;8.746;2023-06-10T14:46:08;4.85;;;2.95;;
46777;SDS011;32536;47.128;8.746;2023-06-10T14:48:35;7.60;;;3.42;;
46777;SDS011;32536;47.128;8.746;2023-06-10T14:51:02;4.60;;;2.30;;
46777;SDS011;32536;47.128;8.746;2023-06-10T14:53:29;5.20;;;2.70;;
46777;SDS011;32536;47.128;8.746;2023-06-10T14:55:55;5.10;;;2.97;;
46777;SDS011;32536;47.128;8.746;2023-06-10T14:58:22;5.63;;;3.90;;
46777;SDS011;32536;47.128;8.746;2023-06-10T15:00:49;5.40;;;3.38;;
46777;SDS011;32536;47.128;8.746;2023-06-10T15:03:16;4.93;;;2.95;;
46777;SDS011;32536;47.128;8.746;2023-06-10T15:05:43;5.43;;;3.75;;
46777;SDS011;32536;47.128;8.746;2023-06-10T15:08:10;7.00;;;4.68;;
46777;SDS011;32536;47.128;8.746;2023-06-10T15:10:36;7.20;;;4.00;;
46777;SDS011;32536;47.128;8.746;2023-06-10T15:13:03;6.53;;;4.40;;
46777;SDS011;32536;47.128;8.746;2023-06-10T15:15:30;5.35;;;3.42;;
46777;SDS011;32536;47.128;8.746;2023-06-10T15:17:57;5.25;;;2.88;;
46777;SDS011;32536;47.128;8.746;2023-06-10T15:20:23;4.68;;;2.72;;
46777;SDS011;32536;47.128;8.746;2023-06-10T15:22:50;5.38;;;2.67;;
46777;SDS011;32536;47.128;8.746;2023-06-10T15:25:19;6.88;;;5.13;;
46777;SDS011;32536;47.128;8.746;2023-06-10T15:27:46;5.65;;;3.17;;